Tiempo atmosférico en la estación meteorológica de Espolla, Girona (94 m.)

Fecha
DESCASC
Temp. máxima en grados centígrados (hora)
DESCASC
Temp. mínima en grados centígrados (hora)
DESCASC
Temp. media en grados centígrados
DESCASC
Racha de viento máxima en m/sg (hora)
DESCASC
Velocidad máxima media en intervalos de 10 minutos(hora)
DESCASC
Precipitaciones diarias en mm
DESCASC
Precipitaciones de 00:00 a 06:00 en mm
DESCASC
Precipitaciones de 06:00 a 12:00 en mm
DESCASC
Precipitaciones de 12:00 a 18:00 en mm
DESCASC
Precipitaciones de 18:00 a 24:00 en mm
DESCASC
23-11-2017 18.3 (14:10) 8.1 (05:50) 13.2 5.83 (14:00) 3.89 (16:40) 0 0 0 0 0
22-11-2017 20 (15:40) 5.2 (05:40) 12.6 7.22 (16:10) 3.89 (16:30) 0 0 0 0 0
21-11-2017 21.3 (13:40) 7.4 (07:40) 14.3 5.56 (03:40) 3.33 (02:30) 0 0 0 0 0
20-11-2017 20.9 (14:30) 7.5 (08:10) 14.2 6.11 (01:20) 3.61 (06:00) 0 0 0 0 0
19-11-2017 20.1 (11:20) 3.4 (00:00) 11.8 13.33 (12:40) 8.06 (12:10) 0 0 0 0 0
18-11-2017 20.1 (14:40) 6.5 (00:00) 13.3 11.39 (04:20) 6.39 (03:00) 0 0 0 0 0
17-11-2017 23.2 (13:30) 3.8 (00:00) 13.5 13.89 (13:10) 8.33 (13:50) 0 0 0 0 0
16-11-2017 16.9 (15:30) 4 (00:00) 10.4 5.28 (04:20) 3.89 (01:00) 0 0 0 0 0
15-11-2017 18.7 (14:10) 1.2 (00:00) 10 6.11 (22:40) 4.72 (22:50) 0 0 0 0 0
14-11-2017 14 (14:10) 8.7 (00:00) 11.3 29.72 (04:50) 14.72 (00:10) 0 0 0 0 0
13-11-2017 12.4 (00:00) 7.9 (00:00) 10.1 32.22 (23:00) 18.06 (22:00) 0.4 0.4 0 0 0
12-11-2017 21 (12:10) 8.3 (00:00) 14.7 18.33 (23:59) 10.28 (23:59) 0.2 0 0 0 0.2
11-11-2017 19.5 (12:40) 10.1 (00:00) 14.8 18.33 (14:50) 9.17 (08:40) 0 0 0 0 0
10-11-2017 17.4 (13:00) 9.3 (00:00) 13.3 21.11 (09:50) 10.83 (21:40) 0 0 0 0 0
09-11-2017 11 (15:00) 7.4 (00:00) 9.2 20 (16:20) 11.11 (21:20) 1.2 0 1.2 0 0
08-11-2017 15.9 (11:30) 4 (00:00) 9.9 16.11 (20:30) 9.17 (20:30) 0 0 0 0 0
07-11-2017 17.5 (14:50) 8.1 (00:00) 12.8 20.28 (03:30) 8.89 (00:10) 0 0 0 0 0
06-11-2017 13 (14:10) 9.1 (00:00) 11.1 33.33 (17:20) 17.22 (16:40) 0 0 0 0 0
05-11-2017 17.5 (01:00) 10.1 (00:00) 13.8 21.67 (15:40) 12.78 (15:50) 0.2 0.2 0 0 0
04-11-2017 18.8 (15:00) 14.4 (00:00) 16.6 12.22 (23:50) 6.11 (23:59) 8 0 0 0.2 7.8
03-11-2017 19.8 (14:00) 14.1 (00:00) 16.9 6.11 (13:50) 4.44 (17:30) 0 0 0 0 0
02-11-2017 21.7 (14:20) 9.9 (07:20) 15.8 5.56 (18:10) 4.17 (18:10) 0 0 0 0 0
01-11-2017 19.9 (14:00) 7.1 (00:00) 13.5 7.78 (15:10) 5 (15:20) 0 0 0 0 0
31-10-2017 19.7 (14:30) 6.7 (00:00) 13.2 6.67 (10:30) 4.17 (11:30) 0 0 0 0 0
30-10-2017 20.3 (13:40) 11.1 (00:00) 15.7 16.94 (18:50) 8.61 (16:30) 0 0 0 0 0
29-10-2017 24.1 (11:50) 10.2 (00:00) 17.2 17.22 (00:30) 9.72 (00:30) 0 0 0 0 0
28-10-2017 23.1 (16:10) 16.1 (00:00) 19.6 25 (02:10) 11.11 (00:10) 0 0 0 0 0
27-10-2017 24.9 (13:30) 11.3 (00:00) 18.1 20.56 (15:50) 11.94 (15:10) 0.2 0 0.2 0 0
26-10-2017 22.2 (16:20) 10.5 (00:00) 16.4 4.17 (16:10) 2.5 (00:30) 0 0 0 0 0
25-10-2017 25 (15:10) 11.6 (00:00) 18.3 5.83 (02:40) 4.17 (03:50) 0 0 0 0 0

Gráficas

Temp. máximas Temp. mínimas Temp. medias Precipitaciones Rachas de viento máximas Velocidades máximas media en intervalos de 10 minutos

Datos horarios

Fecha y hora oficial Temperatura (ºC) Velocidad del viento (km/h) Dirección del viento Racha (km/h) Dirección de racha Precipitación (mm) Presión (hPa) Tendencia (hPa) Humedad (%)
2017-11-23 23:00:00 10.2 0 Calma 13 Nordeste 0 -- -- 89
2017-11-23 22:00:00 10.9 5 Nordeste 12 Nordeste 0 -- -- 87
2017-11-23 21:00:00 11.7 4 Nordeste 16 Nordeste 0 -- -- 85
2017-11-23 20:00:00 12.8 9 Nordeste 15 Nordeste 0 -- -- 84
2017-11-23 19:00:00 13 11 Nordeste 18 Nordeste 0 -- -- 83
2017-11-23 18:00:00 13.6 12 Nordeste 17 Nordeste 0 -- -- 81
2017-11-23 17:00:00 15.2 10 Nordeste 20 Nordeste 0 -- -- 73
2017-11-23 16:00:00 17.9 8 Nordeste 17 Sudeste 0 -- -- 65
2017-11-23 15:00:00 18.1 12 Sudeste 20 Sudeste 0 -- -- 71
2017-11-23 14:00:00 18.2 10 Sudeste 21 Sur 0 -- -- 69
2017-11-23 13:00:00 17.7 5 Sur 11 Sudoeste 0 -- -- 65
2017-11-23 12:00:00 15.6 5 Sudoeste 14 Sur 0 -- -- 70
2017-11-23 11:00:00 15.9 8 Sur 20 Sur 0 -- -- 72
2017-11-23 10:00:00 13.5 0 Calma 11 Nordeste 0 -- -- 78
2017-11-23 09:00:00 10.7 9 Nordeste 16 Este 0 -- -- 88
2017-11-23 08:00:00 8.7 10 Nordeste 16 Nordeste 0 -- -- 90
2017-11-23 07:00:00 8.5 8 Nordeste 16 Nordeste 0 -- -- 91
2017-11-23 06:00:00 8.7 11 Nordeste 16 Nordeste 0 -- -- 92
2017-11-23 05:00:00 8.6 9 Nordeste 15 Nordeste 0 -- -- 91
2017-11-23 04:00:00 8.7 8 Nordeste 13 Nordeste 0 -- -- 95
2017-11-23 03:00:00 8.3 3 Norte 8 Nordeste 0 -- -- 95
2017-11-23 02:00:00 8.8 3 Norte 8 Este 0 -- -- 96
2017-11-23 01:00:00 9.5 5 Norte 7 Este 0 -- -- 94
2017-11-23 00:00:00 10 2 Nordeste 6 Norte 0 -- -- 93
2017-11-22 23:00:00 10.2 5 Norte 8 Norte 0 -- -- 95
2017-11-22 22:00:00 9.8 4 Norte 6 Nordeste 0 -- -- 92
2017-11-22 21:00:00 10.8 4 Norte 8 Nordeste 0 -- -- 89
2017-11-22 20:00:00 12.4 3 Norte 8 Este 0 -- -- 85
2017-11-22 19:00:00 12.7 4 Este 7 Norte 0 -- -- 84
2017-11-22 18:00:00 13.8 2 Nordeste 15 Sur 0 -- -- 72
2017-11-22 17:00:00 17.3 9 Sur 26 Sur 0 -- -- 62
2017-11-22 16:00:00 19.7 13 Sur 24 Sur 0 -- -- 51
2017-11-22 15:00:00 19.1 7 Sur 15 Sur 0 -- -- 54
2017-11-22 14:00:00 18.6 8 Sur 15 Sudoeste 0 -- -- 52
2017-11-22 13:00:00 17 4 Sudoeste 14 Oeste 0 -- -- 56
2017-11-22 12:00:00 15.9 7 Sudoeste 18 Sudoeste 0 -- -- 54
2017-11-22 11:00:00 15.2 9 Sur 16 Sudoeste 0 -- -- 57
2017-11-22 10:00:00 14.1 4 Sudeste 13 Nordeste 0 -- -- 57
2017-11-22 09:00:00 10 8 Nordeste 17 Nordeste 0 -- -- 65
2017-11-22 08:00:00 7.3 11 Nordeste 17 Nordeste 0 -- -- 71
2017-11-22 07:00:00 7.3 8 Nordeste 15 Nordeste 0 -- -- 72
2017-11-22 06:00:00 6.9 12 Nordeste 15 Nordeste 0 -- -- 73
2017-11-22 05:00:00 6.7 6 Nordeste 14 Nordeste 0 -- -- 73
2017-11-22 04:00:00 6.7 0 Calma 15 Nordeste 0 -- -- 73
2017-11-22 03:00:00 8.6 7 Nordeste 15 Nordeste 0 -- -- 68
2017-11-22 02:00:00 7.5 9 Nordeste 13 Este 0 -- -- 73
2017-11-22 01:00:00 7.4 0 Calma 9 Nordeste 0 -- -- 75
2017-11-22 00:00:00 8.5 2 Nordeste 12 Nordeste 0 -- -- 69
2017-11-21 23:00:00 10.2 8 Nordeste 14 Nordeste 0 -- -- 62
2017-11-21 22:00:00 10 9 Nordeste 13 Norte 0 -- -- 61
2017-11-21 21:00:00 10.2 7 Norte 11 Norte 0 -- -- 60
2017-11-21 20:00:00 10.7 4 Norte 9 Norte 0 -- -- 60
2017-11-21 19:00:00 10.8 3 Nordeste 9 Nordeste 0 -- -- 62
2017-11-21 18:00:00 13.2 4 Norte 8 Nordeste 0 -- -- 57
2017-11-21 17:00:00 18 5 Sudoeste 7 Sur 0 -- -- 48
2017-11-21 16:00:00 19.7 4 Sudoeste 15 Sur 0 -- -- 40
2017-11-21 15:00:00 20.4 10 Sur 18 Sur 0 -- -- 38
2017-11-21 14:00:00 21.3 8 Sur 16 Sur 0 -- -- 38
2017-11-21 13:00:00 20.8 6 Sudoeste 12 Sur 0 -- -- 41
2017-11-21 12:00:00 20 6 Sudoeste 11 Sur 0 -- -- 40
2017-11-21 11:00:00 17.8 3 Sur 8 Sudoeste 0 -- -- 44
2017-11-21 10:00:00 15.3 3 Sudoeste 5 Sur 0 -- -- 47
2017-11-21 09:00:00 11.5 0 Calma 9 Norte 0 -- -- 58
2017-11-21 08:00:00 8.2 5 Nordeste 10 Nordeste 0 -- -- 65
2017-11-21 07:00:00 8.3 0 Calma 9 Norte 0 -- -- 65
2017-11-21 06:00:00 8.9 3 Nordeste 7 Norte 0 -- -- 63
2017-11-21 05:00:00 9.2 6 Norte 16 Nordeste 0 -- -- 63
2017-11-21 04:00:00 10.1 8 Nordeste 20 Nordeste 0 -- -- 60
2017-11-21 03:00:00 9.4 5 Norte 14 Nordeste 0 -- -- 64
2017-11-21 02:00:00 9.4 6 Norte 11 Norte 0 -- -- 65
2017-11-21 01:00:00 9.8 10 Norte 17 Nordeste 0 -- -- 64
2017-11-21 00:00:00 9.2 6 Nordeste 12 Nordeste 0 -- -- 69
2017-11-20 23:00:00 9.2 5 Norte 12 Nordeste 0 -- -- 69
2017-11-20 22:00:00 9.7 8 Nordeste 12 Nordeste 0 -- -- 68
2017-11-20 21:00:00 10.3 9 Nordeste 15 Nordeste 0 -- -- 66
2017-11-20 20:00:00 10.6 3 Nordeste 14 Nordeste 0 -- -- 65
2017-11-20 19:00:00 10.8 5 Nordeste 9 Nordeste 0 -- -- 65
2017-11-20 18:00:00 12.7 4 Nordeste 9 Norte 0 -- -- 59
2017-11-20 17:00:00 17.1 4 Sur 14 Sudeste 0 -- -- 46
2017-11-20 16:00:00 19.2 9 Sudeste 19 Sur 0 -- -- 42
2017-11-20 15:00:00 20.6 10 Sur 18 Sur 0 -- -- 39
2017-11-20 14:00:00 20.6 10 Sur 17 Sudoeste 0 -- -- 36
2017-11-20 13:00:00 20.1 8 Sur 18 Sudeste 0 -- -- 37
2017-11-20 12:00:00 18.6 10 Sur 15 Sur 0 -- -- 37
2017-11-20 11:00:00 17 7 Sur 10 Sur 0 -- -- 39
2017-11-20 10:00:00 14.3 5 Sur 13 Sur 0 -- -- 47
2017-11-20 09:00:00 10.6 3 Este 9 Sur 0 -- -- 62
2017-11-20 08:00:00 7.7 0 Calma 9 Este 0 -- -- 67
2017-11-20 07:00:00 9.5 3 Noroeste 17 Nordeste 0 -- -- 62
2017-11-20 06:00:00 10.5 13 Norte 18 Norte 0 -- -- 59
2017-11-20 05:00:00 10.2 7 Oeste 14 Oeste 0 -- -- 56
2017-11-20 04:00:00 9.9 8 Norte 11 Noroeste 0 -- -- 49
2017-11-20 03:00:00 11.4 6 Norte 15 Norte 0 -- -- 41
2017-11-20 02:00:00 12.9 10 Norte 22 Norte 0 -- -- 40
2017-11-20 01:00:00 11.3 8 Noroeste 17 Oeste 0 -- -- 50
2017-11-20 00:00:00 11.1 10 Sudeste 14 Este 0 -- -- 55
2017-11-19 23:00:00 10.5 7 Sur 15 Sur 0 -- -- 56
2017-11-19 22:00:00 11.9 9 Oeste 30 Norte 0 -- -- 52
2017-11-19 21:00:00 13.1 16 Nordeste 27 Nordeste 0 -- -- 47
2017-11-19 20:00:00 13.6 6 Norte 25 Norte 0 -- -- 43
2017-11-19 19:00:00 14.8 12 Noroeste 27 Noroeste 0 -- -- 39
2017-11-19 18:00:00 15.5 8 Norte 29 Nordeste 0 -- -- 33
2017-11-19 17:00:00 17.4 16 Norte 32 Norte 0 -- -- 31
2017-11-19 16:00:00 18.8 16 Noroeste 38 Noroeste 0 -- -- 29
2017-11-19 15:00:00 18.8 19 Norte 44 Norte 0 -- -- 24
2017-11-19 14:00:00 19.1 17 Norte 47 Norte 0 -- -- 27
2017-11-19 13:00:00 18.8 26 Norte 48 Norte 0 -- -- 22
2017-11-19 12:00:00 19.7 27 Norte 43 Noroeste 0 -- -- 15
2017-11-19 11:00:00 19.2 13 Norte 24 Norte 0 -- -- 12
2017-11-19 10:00:00 13.7 5 Sudeste 8 Este 0 -- -- 42
2017-11-19 09:00:00 7.2 3 Noroeste 10 Norte 0 -- -- 76
2017-11-19 08:00:00 3.8 2 Nordeste 14 Norte 0 -- -- 90
2017-11-19 07:00:00 4 3 Norte 11 Norte 0 -- -- 93
2017-11-19 06:00:00 4.2 3 Norte 11 Norte 0 -- -- 91
2017-11-19 05:00:00 4.1 3 Nordeste 10 Nordeste 0 -- -- 88
2017-11-19 04:00:00 4.6 4 Nordeste 10 Nordeste 0 -- -- 86
2017-11-19 03:00:00 5.7 4 Norte 14 Nordeste 0 -- -- 78
2017-11-19 02:00:00 6 3 Nordeste 14 Este 0 -- -- 77
2017-11-19 01:00:00 6.9 5 Nordeste 14 Nordeste 0 -- -- 74
2017-11-19 00:00:00 7.1 8 Nordeste 19 Nordeste 0 -- -- 73
2017-11-18 23:00:00 7 5 Nordeste 12 Norte 0 -- -- 74
2017-11-18 22:00:00 7.2 4 Nordeste 10 Norte 0 -- -- 70
2017-11-18 21:00:00 8.2 4 Norte 10 Nordeste 0 -- -- 66
2017-11-18 20:00:00 9.1 4 Norte 12 Norte 0 -- -- 63
2017-11-18 19:00:00 11.4 5 Este 13 Sur 0 -- -- 55
2017-11-18 18:00:00 14.9 7 Nordeste 27 Norte 0 -- -- 44
2017-11-18 17:00:00 17.4 15 Norte 26 Norte 0 -- -- 39
2017-11-18 16:00:00 19.1 12 Norte 36 Norte 0 -- -- 36
2017-11-18 15:00:00 19.8 15 Norte 33 Norte 0 -- -- 34
2017-11-18 14:00:00 19.6 18 Norte 36 Nordeste 0 -- -- 36
2017-11-18 13:00:00 19.1 21 Norte 38 Norte 0 -- -- 37
2017-11-18 12:00:00 18.7 17 Norte 30 Noroeste 0 -- -- 38
2017-11-18 11:00:00 18.2 18 Noroeste 36 Noroeste 0 -- -- 38
2017-11-18 10:00:00 16.4 23 Noroeste 40 Noroeste 0 -- -- 43
2017-11-18 09:00:00 15.3 16 Norte 30 Norte 0 -- -- 44
2017-11-18 08:00:00 10.9 3 Sudoeste 24 Norte 0 -- -- 59
2017-11-18 07:00:00 13.6 14 Norte 22 Noroeste 0 -- -- 49
2017-11-18 06:00:00 13.8 12 Norte 30 Norte 0 -- -- 49
2017-11-18 05:00:00 13.3 14 Norte 41 Nordeste 0 -- -- 51
2017-11-18 04:00:00 13.4 15 Norte 37 Nordeste 0 -- -- 50
2017-11-18 03:00:00 13.9 23 Norte 37 Norte 0 -- -- 50
2017-11-18 02:00:00 13.6 10 Noroeste 39 Norte 0 -- -- 51
2017-11-18 01:00:00 14.7 18 Norte 33 Norte 0 -- -- 47
2017-11-18 00:00:00 15.8 18 Norte 38 Norte 0 -- -- 41
2017-11-17 23:00:00 16.5 18 Norte 37 Norte 0 -- -- 38
2017-11-17 22:00:00 16.1 16 Norte 28 Norte 0 -- -- 39
2017-11-17 21:00:00 10.2 3 Sur 10 Sur 0 -- -- 75
2017-11-17 20:00:00 10.6 0 Calma 6 Oeste 0 -- -- 72
2017-11-17 19:00:00 13.4 6 Sudoeste 38 Norte 0 -- -- 67
2017-11-17 18:00:00 19 22 Noroeste 39 Noroeste 0 -- -- 27
2017-11-17 17:00:00 20 16 Norte 36 Norte 0 -- -- 28
2017-11-17 16:00:00 21.6 20 Norte 47 Norte 0 -- -- 27
2017-11-17 15:00:00 22.6 25 Norte 48 Norte 0 -- -- 25
2017-11-17 14:00:00 22.9 24 Norte 50 Norte 0 -- -- 25
2017-11-17 13:00:00 22.7 21 Norte 43 Noroeste 0 -- -- 25
2017-11-17 12:00:00 21.7 17 Norte 31 Nordeste 0 -- -- 27
2017-11-17 11:00:00 20 14 Norte 32 Norte 0 -- -- 30
2017-11-17 10:00:00 19.4 13 Norte 25 Noroeste 0 -- -- 30
2017-11-17 09:00:00 17.9 14 Norte 33 Noroeste 0 -- -- 33
2017-11-17 08:00:00 15.7 16 Norte 33 Norte 0 -- -- 39
2017-11-17 07:00:00 3.8 2 Sudeste 7 Nordeste 0 -- -- 91
2017-11-17 06:00:00 4.8 3 Norte 14 Norte 0 -- -- 90
2017-11-17 05:00:00 5.3 3 Noroeste 18 Norte 0 -- -- 89
2017-11-17 04:00:00 5.7 5 Nordeste 15 Norte 0 -- -- 87
2017-11-17 03:00:00 6 4 Nordeste 12 Norte 0 -- -- 89
2017-11-17 02:00:00 5.6 0 Calma 13 Nordeste 0 -- -- 89
2017-11-17 01:00:00 5.7 4 Nordeste 10 Norte 0 -- -- 95
2017-11-17 00:00:00 5.4 3 Norte 8 Norte 0 -- -- 93
2017-11-16 23:00:00 6.3 3 Nordeste 10 Norte 0 -- -- 92
2017-11-16 22:00:00 6.3 2 Nordeste 17 Nordeste 0 -- -- 89
2017-11-16 21:00:00 6.8 5 Nordeste 13 Nordeste 0 -- -- 87
2017-11-16 20:00:00 7.1 6 Nordeste 14 Nordeste 0 -- -- 82
2017-11-16 19:00:00 7.7 4 Nordeste 8 Nordeste 0 -- -- 79
2017-11-16 18:00:00 10.8 0 Calma 6 Sudeste 0 -- -- 62
2017-11-16 17:00:00 14.8 5 Sur 11 Sur 0 -- -- 52
2017-11-16 16:00:00 16.7 4 Sur 10 Sudoeste 0 -- -- 40
2017-11-16 15:00:00 16.5 6 Sur 13 Sudoeste 0 -- -- 39
2017-11-16 14:00:00 16 9 Sudoeste 16 Sur 0 -- -- 45
2017-11-16 13:00:00 15.8 5 Sudoeste 14 Sur 0 -- -- 47
2017-11-16 12:00:00 14.9 4 Sur 11 Sudoeste 0 -- -- 52
2017-11-16 11:00:00 13.5 6 Sudoeste 9 Sur 0 -- -- 50
2017-11-16 10:00:00 11.7 4 Sur 10 Nordeste 0 -- -- 55
2017-11-16 09:00:00 8.1 8 Nordeste 14 Nordeste 0 -- -- 69
2017-11-16 08:00:00 4.6 10 Nordeste 17 Nordeste 0 -- -- 73
2017-11-16 07:00:00 4.3 5 Norte 15 Nordeste 0 -- -- 75
2017-11-16 06:00:00 4.4 6 Nordeste 15 Este 0 -- -- 73
2017-11-16 05:00:00 5 10 Nordeste 19 Nordeste 0 -- -- 71
2017-11-16 04:00:00 5.5 10 Nordeste 18 Nordeste 0 -- -- 70
2017-11-16 03:00:00 5.6 10 Nordeste 15 Nordeste 0 -- -- 76
2017-11-16 02:00:00 6.6 3 Sudeste 17 Nordeste 0 -- -- 72
2017-11-16 01:00:00 8.4 14 Nordeste 18 Nordeste 0 -- -- 71
2017-11-16 00:00:00 8.9 8 Este 21 Nordeste 0 -- -- 65
2017-11-15 23:00:00 9.4 12 Nordeste 22 Nordeste 0 -- -- 61
2017-11-15 22:00:00 8.4 14 Nordeste 19 Nordeste 0 -- -- 60
2017-11-15 21:00:00 8.8 9 Nordeste 15 Nordeste 0 -- -- 60
2017-11-15 20:00:00 8.5 9 Nordeste 14 Nordeste 0 -- -- 55
2017-11-15 19:00:00 8.4 6 Nordeste 12 Nordeste 0 -- -- 52
2017-11-15 18:00:00 9.8 4 Nordeste 13 Nordeste 0 -- -- 48
2017-11-15 17:00:00 15.7 0 Calma 12 Sur 0 -- -- 35
2017-11-15 16:00:00 16 10 Sur 20 Sur 0 -- -- 30
2017-11-15 15:00:00 17.7 11 Sur 21 Sur 0 -- -- 27
2017-11-15 14:00:00 18.6 10 Sudoeste 19 Sur 0 -- -- 23
2017-11-15 13:00:00 17.4 9 Sur 15 Sur 0 -- -- 24
2017-11-15 12:00:00 16 12 Sur 19 Sur 0 -- -- 26
2017-11-15 11:00:00 15 6 Sur 13 Sur 0 -- -- 25
2017-11-15 10:00:00 11.5 4 Sudoeste 9 Sur 0 -- -- 31
2017-11-15 09:00:00 6.1 2 Sur 8 Nordeste 0 -- -- 51
2017-11-15 08:00:00 1.3 4 Norte 9 Nordeste 0 -- -- 66
2017-11-15 07:00:00 1.4 4 Noroeste 11 Norte 0 -- -- 65
2017-11-15 06:00:00 1.7 3 Este 13 Norte 0 -- -- 68
2017-11-15 05:00:00 2.3 4 Norte 12 Norte 0 -- -- 67
2017-11-15 04:00:00 3.8 3 Sur 18 Norte 0 -- -- 59
2017-11-15 03:00:00 4.4 8 Nordeste 13 Norte 0 -- -- 59
2017-11-15 02:00:00 6.3 6 Sur 18 Norte 0 -- -- 48
2017-11-15 01:00:00 7.2 4 Nordeste 16 Este 0 -- -- 47
2017-11-15 00:00:00 9.4 7 Nordeste 33 Norte 0 -- -- 41
2017-11-14 23:00:00 10.9 26 Norte 65 Norte 0 -- -- 39
2017-11-14 22:00:00 10.5 29 Norte 66 Norte 0 -- -- 42
2017-11-14 21:00:00 10.9 37 Norte 82 Norte 0 -- -- 39
2017-11-14 20:00:00 10.5 35 Norte 72 Norte 0 -- -- 45
2017-11-14 19:00:00 10.9 39 Norte 75 Noroeste 0 -- -- 41
2017-11-14 18:00:00 11.3 40 Norte 76 Noroeste 0 -- -- 39
2017-11-14 17:00:00 12.1 33 Nordeste 70 Norte 0 -- -- 36
2017-11-14 16:00:00 13.1 35 Norte 70 Norte 0 -- -- 34
2017-11-14 15:00:00 13.5 32 Norte 64 Nordeste 0 -- -- 34
2017-11-14 14:00:00 13.9 23 Norte 70 Norte 0 -- -- 32
2017-11-14 13:00:00 13.6 28 Norte 60 Norte 0 -- -- 34
2017-11-14 12:00:00 12.9 30 Noroeste 71 Noroeste 0 -- -- 35
2017-11-14 11:00:00 12 31 Norte 68 Noroeste 0 -- -- 38
2017-11-14 10:00:00 11 32 Norte 70 Norte 0 -- -- 41
2017-11-14 09:00:00 10.1 34 Norte 79 Norte 0 -- -- 43
2017-11-14 08:00:00 9.2 35 Norte 89 Noroeste 0 -- -- 45
2017-11-14 07:00:00 8.9 41 Norte 100 Norte 0 -- -- 47
2017-11-14 06:00:00 8.8 40 Norte 79 Norte 0 -- -- 48
2017-11-14 05:00:00 8.9 32 Norte 107 Norte 0 -- -- 47
2017-11-14 04:00:00 8.8 33 Norte 91 Norte 0 -- -- 48
2017-11-14 03:00:00 8.7 40 Norte 84 Norte 0 -- -- 51
2017-11-14 02:00:00 8.8 42 Norte 94 Norte 0 -- -- 51
2017-11-14 01:00:00 8.9 46 Norte 95 Norte 0 -- -- 50
2017-11-14 00:00:00 9.3 53 Norte 103 Norte 0 -- -- 46
2017-11-13 23:00:00 9.5 62 Norte 116 Norte 0 -- -- 43
2017-11-13 22:00:00 9.8 65 Norte 115 Norte 0 -- -- 41
2017-11-13 21:00:00 9.6 57 Norte 110 Norte 0 -- -- 42
2017-11-13 20:00:00 9.7 54 Norte 99 Norte 0 -- -- 44
2017-11-13 19:00:00 9.5 57 Norte 96 Norte 0 -- -- 46
2017-11-13 18:00:00 9.5 50 Norte 103 Noroeste 0 -- -- 46
2017-11-13 17:00:00 9.8 57 Norte 102 Noroeste 0 -- -- 46
2017-11-13 16:00:00 10.2 54 Norte 94 Noroeste 0 -- -- 45
2017-11-13 15:00:00 10.5 54 Noroeste 93 Norte 0 -- -- 44
2017-11-13 14:00:00 10.9 54 Noroeste 91 Noroeste 0 -- -- 42
2017-11-13 13:00:00 10.9 53 Noroeste 90 Norte 0 -- -- 41
2017-11-13 12:00:00 11 42 Norte 85 Noroeste 0 -- -- 40
2017-11-13 11:00:00 10.6 35 Norte 67 Norte 0 -- -- 42
2017-11-13 10:00:00 9.7 41 Norte 82 Norte 0 -- -- 44
2017-11-13 09:00:00 8.7 36 Norte 85 Noroeste 0 -- -- 46
2017-11-13 08:00:00 8 48 Norte 92 Norte 0 -- -- 45
2017-11-13 07:00:00 8.2 49 Norte 91 Noroeste 0 -- -- 52
2017-11-13 06:00:00 8.7 46 Norte 94 Norte 0 -- -- 51
2017-11-13 05:00:00 9 45 Norte 87 Norte 0 -- -- 52
2017-11-13 04:00:00 9.2 49 Norte 91 Norte 0 -- -- 55
2017-11-13 03:00:00 9.2 37 Norte 77 Norte 0 -- -- 55
2017-11-13 02:00:00 9.7 31 Norte 68 Norte 0.2 -- -- 56
2017-11-13 01:00:00 10 44 Norte 83 Norte 0.2 -- -- 59
2017-11-13 00:00:00 12.4 37 Nordeste 66 Nordeste 0.2 -- -- 73
2017-11-12 23:00:00 15.9 15 Norte 30 Noroeste 0 -- -- 61
2017-11-12 22:00:00 11.1 10 Nordeste 20 Norte 0 -- -- 84
2017-11-12 21:00:00 11.2 4 Nordeste 22 Nordeste 0 -- -- 80
2017-11-12 20:00:00 11.6 5 Norte 15 Este 0 -- -- 78
2017-11-12 19:00:00 12.9 7 Nordeste 16 Nordeste 0 -- -- 74
2017-11-12 18:00:00 14.8 4 Este 13 Nordeste 0 -- -- 69
2017-11-12 17:00:00 17.2 4 Este 22 Sur 0 -- -- 61
2017-11-12 16:00:00 19.3 14 Sur 25 Sur 0 -- -- 52
2017-11-12 15:00:00 20.3 13 Sur 21 Sur 0 -- -- 47
2017-11-12 14:00:00 20.6 12 Sur 24 Sur 0 -- -- 47
2017-11-12 13:00:00 20.7 12 Sudoeste 25 Sudoeste 0 -- -- 45
2017-11-12 12:00:00 20.8 12 Oeste 30 Oeste 0 -- -- 44
2017-11-12 11:00:00 19.5 14 Oeste 44 Noroeste 0 -- -- 49
2017-11-12 10:00:00 17.8 16 Norte 31 Norte 0 -- -- 55
2017-11-12 09:00:00 15.9 15 Noroeste 29 Oeste 0 -- -- 62
2017-11-12 08:00:00 11.5 6 Este 30 Noroeste 0 -- -- 70
2017-11-12 07:00:00 12.6 6 Noroeste 17 Noroeste 0 -- -- 73
2017-11-12 06:00:00 9 4 Norte 16 Noroeste 0 -- -- 80
2017-11-12 05:00:00 8.5 6 Oeste 17 Sur 0 -- -- 81
2017-11-12 04:00:00 8.7 6 Sudoeste 13 Sudoeste 0 -- -- 81
2017-11-12 03:00:00 9.2 3 Nordeste 15 Norte 0 -- -- 79
2017-11-12 02:00:00 9.5 4 Sur 12 Nordeste 0 -- -- 79
2017-11-12 01:00:00 10 5 Nordeste 13 Sudeste 0 -- -- 79
2017-11-12 00:00:00 10.1 6 Norte 11 Norte 0 -- -- 79
2017-11-11 23:00:00 10.7 6 Norte 10 Nordeste 0 -- -- 78
2017-11-11 22:00:00 12.6 3 Nordeste 13 Noroeste 0 -- -- 71
2017-11-11 21:00:00 15.6 6 Noroeste 30 Norte 0 -- -- 59
2017-11-11 20:00:00 15.8 15 Norte 30 Norte 0 -- -- 61
2017-11-11 19:00:00 15.7 6 Norte 21 Sudoeste 0 -- -- 57
2017-11-11 18:00:00 16.4 4 Norte 29 Noroeste 0 -- -- 53
2017-11-11 17:00:00 18.8 17 Norte 46 Noroeste 0 -- -- 44
2017-11-11 16:00:00 18.7 13 Oeste 45 Norte 0 -- -- 48
2017-11-11 15:00:00 18.3 30 Norte 66 Norte 0 -- -- 49
2017-11-11 14:00:00 18.8 24 Norte 45 Norte 0 -- -- 49
2017-11-11 13:00:00 18.1 22 Norte 50 Norte 0 -- -- 50
2017-11-11 12:00:00 19 19 Norte 59 Noroeste 0 -- -- 48
2017-11-11 11:00:00 17.9 24 Norte 57 Norte 0 -- -- 51
2017-11-11 10:00:00 16.4 24 Norte 48 Norte 0 -- -- 57
2017-11-11 09:00:00 15.4 21 Norte 53 Noroeste 0 -- -- 61
2017-11-11 08:00:00 14.3 24 Norte 59 Noroeste 0 -- -- 64
2017-11-11 07:00:00 14.6 31 Norte 55 Noroeste 0 -- -- 61
2017-11-11 06:00:00 14.3 14 Noroeste 34 Norte 0 -- -- 62
2017-11-11 05:00:00 14.1 9 Noroeste 43 Noroeste 0 -- -- 63
2017-11-11 04:00:00 14.6 23 Noroeste 51 Noroeste 0 -- -- 61
2017-11-11 03:00:00 14.4 12 Noroeste 48 Noroeste 0 -- -- 61
2017-11-11 02:00:00 14.6 18 Noroeste 55 Noroeste 0 -- -- 61
2017-11-11 01:00:00 14.6 19 Norte 44 Noroeste 0 -- -- 62
2017-11-11 00:00:00 14.7 23 Norte 56 Noroeste 0 -- -- 60
2017-11-10 23:00:00 15 35 Noroeste 68 Norte 0 -- -- 57
2017-11-10 22:00:00 14.8 33 Noroeste 66 Noroeste 0 -- -- 56
2017-11-10 21:00:00 14.2 24 Noroeste 50 Norte 0 -- -- 61
2017-11-10 20:00:00 14.4 26 Noroeste 51 Norte 0 -- -- 57
2017-11-10 19:00:00 14.8 38 Norte 69 Noroeste 0 -- -- 55
2017-11-10 18:00:00 14.6 37 Norte 57 Nordeste 0 -- -- 54
2017-11-10 17:00:00 15 9 Norte 52 Noroeste 0 -- -- 51
2017-11-10 16:00:00 15.3 30 Norte 55 Norte 0 -- -- 49
2017-11-10 15:00:00 16.1 15 Sudeste 31 Sur 0 -- -- 45
2017-11-10 14:00:00 16.9 11 Oeste 44 Sur 0 -- -- 42
2017-11-10 13:00:00 17.4 14 Sudoeste 51 Norte 0 -- -- 39
2017-11-10 12:00:00 16.1 17 Norte 48 Noroeste 0 -- -- 40
2017-11-10 11:00:00 15.2 22 Norte 60 Norte 0 -- -- 39
2017-11-10 10:00:00 13.3 30 Norte 76 Noroeste 0 -- -- 43
2017-11-10 09:00:00 11.7 18 Norte 50 Noroeste 0 -- -- 50
2017-11-10 08:00:00 10.1 15 Norte 45 Nordeste 0 -- -- 57
2017-11-10 07:00:00 9.3 9 Sur 44 Noroeste 0 -- -- 59
2017-11-10 06:00:00 9.6 24 Noroeste 65 Noroeste 0 -- -- 58
2017-11-10 05:00:00 9.9 32 Norte 69 Norte 0 -- -- 55
2017-11-10 04:00:00 10.3 27 Norte 68 Norte 0 -- -- 57
2017-11-10 03:00:00 9.8 22 Norte 61 Noroeste 0 -- -- 61
2017-11-10 02:00:00 10.1 16 Norte 46 Noroeste 0 -- -- 58
2017-11-10 01:00:00 10.1 19 Norte 51 Noroeste 0 -- -- 57
2017-11-10 00:00:00 9.9 18 Norte 55 Norte 0 -- -- 59
2017-11-09 23:00:00 9.8 28 Norte 59 Norte 0 -- -- 60
2017-11-09 22:00:00 9.9 29 Norte 66 Noroeste 0 -- -- 59
2017-11-09 21:00:00 9.8 32 Norte 70 Noroeste 0 -- -- 61
2017-11-09 20:00:00 9.7 34 Norte 69 Noroeste 0 -- -- 62
2017-11-09 19:00:00 9.8 30 Norte 55 Noroeste 0 -- -- 62
2017-11-09 18:00:00 9.5 31 Norte 62 Norte 0 -- -- 66
2017-11-09 17:00:00 9.9 32 Norte 72 Norte 0 -- -- 65
2017-11-09 16:00:00 10.8 33 Norte 60 Norte 0 -- -- 59
2017-11-09 15:00:00 11 27 Norte 68 Norte 0 -- -- 58
2017-11-09 14:00:00 9.8 31 Norte 57 Norte 0 -- -- 62
2017-11-09 13:00:00 9.4 24 Norte 50 Norte 0 -- -- 62
2017-11-09 12:00:00 9.6 7 Noroeste 31 Noroeste 0 -- -- 63
2017-11-09 11:00:00 9.3 18 Noroeste 39 Noroeste 0 -- -- 63
2017-11-09 10:00:00 8.9 18 Noroeste 44 Noroeste 0 -- -- 66
2017-11-09 09:00:00 8.4 17 Norte 51 Noroeste 0.2 -- -- 67
2017-11-09 08:00:00 7.8 27 Norte 48 Norte 0.6 -- -- 73
2017-11-09 07:00:00 7.9 16 Norte 43 Norte 0.4 -- -- 73
2017-11-09 06:00:00 8.6 15 Norte 41 Norte 0 -- -- 67
2017-11-09 05:00:00 9.9 24 Norte 44 Norte 0 -- -- 53
2017-11-09 04:00:00 9.2 8 Noroeste 26 Noroeste 0 -- -- 53
2017-11-09 03:00:00 7.4 4 Oeste 21 Norte 0 -- -- 56
2017-11-09 02:00:00 9.5 14 Norte 45 Norte 0 -- -- 44
2017-11-09 01:00:00 9.8 19 Norte 44 Norte 0 -- -- 46
2017-11-09 00:00:00 10 19 Norte 44 Norte 0 -- -- 44
2017-11-08 23:00:00 10.1 28 Norte 58 Norte 0 -- -- 48
2017-11-08 22:00:00 10.4 12 Noroeste 43 Noroeste 0 -- -- 47
2017-11-08 21:00:00 11.3 18 Noroeste 58 Norte 0 -- -- 44
2017-11-08 20:00:00 10.9 28 Norte 54 Norte 0 -- -- 49
2017-11-08 19:00:00 10.8 22 Norte 46 Norte 0 -- -- 51
2017-11-08 18:00:00 11.8 22 Norte 42 Norte 0 -- -- 41
2017-11-08 17:00:00 12.4 24 Norte 47 Norte 0 -- -- 39
2017-11-08 16:00:00 13.4 17 Norte 41 Norte 0 -- -- 41
2017-11-08 15:00:00 13.3 20 Norte 37 Norte 0 -- -- 43
2017-11-08 14:00:00 13.6 21 Noroeste 46 Norte 0 -- -- 42
2017-11-08 13:00:00 13.9 20 Norte 44 Noroeste 0 -- -- 40
2017-11-08 12:00:00 15.2 21 Noroeste 49 Noroeste 0 -- -- 42
2017-11-08 11:00:00 15.3 17 Norte 29 Noroeste 0 -- -- 42
2017-11-08 10:00:00 11.3 4 Sur 10 Este 0 -- -- 42
2017-11-08 09:00:00 7 2 Nordeste 8 Noroeste 0 -- -- 62
2017-11-08 08:00:00 5.9 3 Este 10 Norte 0 -- -- 63
2017-11-08 07:00:00 6.2 4 Norte 9 Norte 0 -- -- 57
2017-11-08 06:00:00 6.1 3 Nordeste 8 Nordeste 0 -- -- 58
2017-11-08 05:00:00 5.2 2 Sudoeste 9 Norte 0 -- -- 55
2017-11-08 04:00:00 5.2 5 Nordeste 10 Norte 0 -- -- 48
2017-11-08 03:00:00 4.6 2 Este 10 Sur 0 -- -- 61
2017-11-08 02:00:00 6.7 5 Este 13 Norte 0 -- -- 53
2017-11-08 01:00:00 8.3 4 Norte 22 Norte 0 -- -- 50
2017-11-08 00:00:00 9.8 13 Norte 45 Norte 0 -- -- 43
2017-11-07 23:00:00 9.3 24 Noroeste 51 Noroeste 0 -- -- 50
2017-11-07 22:00:00 9.1 25 Noroeste 42 Noroeste 0 -- -- 51
2017-11-07 21:00:00 10.2 24 Noroeste 51 Noroeste 0 -- -- 45
2017-11-07 20:00:00 10.7 12 Norte 28 Norte 0 -- -- 38
2017-11-07 19:00:00 11.5 9 Noroeste 23 Norte 0 -- -- 34
2017-11-07 18:00:00 11.8 5 Noroeste 31 Noroeste 0 -- -- 36
2017-11-07 17:00:00 14.9 17 Noroeste 33 Noroeste 0 -- -- 26
2017-11-07 16:00:00 17.1 5 Sur 15 Oeste 0 -- -- 25
2017-11-07 15:00:00 17 9 Sudoeste 25 Norte 0 -- -- 27
2017-11-07 14:00:00 16 11 Norte 31 Norte 0 -- -- 27
2017-11-07 13:00:00 16.3 9 Norte 28 Noroeste 0 -- -- 27
2017-11-07 12:00:00 15.6 15 Oeste 31 Sudoeste 0 -- -- 29
2017-11-07 11:00:00 13.8 14 Sur 37 Norte 0 -- -- 32
2017-11-07 10:00:00 12 15 Oeste 64 Noroeste 0 -- -- 35
2017-11-07 09:00:00 11.6 16 Norte 44 Norte 0 -- -- 35
2017-11-07 08:00:00 8.1 8 Este 33 Noroeste 0 -- -- 46
2017-11-07 07:00:00 8.8 17 Noroeste 35 Noroeste 0 -- -- 45
2017-11-07 06:00:00 8.9 16 Oeste 37 Sudoeste 0 -- -- 45
2017-11-07 05:00:00 9.2 18 Sur 57 Oeste 0 -- -- 43
2017-11-07 04:00:00 8.9 9 Sur 73 Noroeste 0 -- -- 49
2017-11-07 03:00:00 9.1 18 Oeste 49 Noroeste 0 -- -- 49
2017-11-07 02:00:00 9.2 23 Noroeste 54 Norte 0 -- -- 48
2017-11-07 01:00:00 9.3 14 Sudoeste 60 Norte 0 -- -- 47
2017-11-07 00:00:00 9.5 24 Noroeste 51 Oeste 0 -- -- 46
2017-11-06 23:00:00 9.7 15 Sudoeste 40 Oeste 0 -- -- 44
2017-11-06 22:00:00 10.1 17 Noroeste 59 Noroeste 0 -- -- 42
2017-11-06 21:00:00 10.2 19 Noroeste 91 Norte 0 -- -- 44
2017-11-06 20:00:00 10.6 41 Norte 104 Noroeste 0 -- -- 41
2017-11-06 19:00:00 10.9 49 Norte 105 Norte 0 -- -- 39
2017-11-06 18:00:00 10.7 39 Norte 120 Norte 0 -- -- 42
2017-11-06 17:00:00 11.3 55 Norte 117 Norte 0 -- -- 41
2017-11-06 16:00:00 12.1 55 Norte 108 Norte 0 -- -- 37
2017-11-06 15:00:00 12.6 53 Norte 104 Norte 0 -- -- 36
2017-11-06 14:00:00 12.9 48 Norte 94 Norte 0 -- -- 35
2017-11-06 13:00:00 12.2 51 Norte 99 Norte 0 -- -- 42
2017-11-06 12:00:00 12 46 Norte 85 Noroeste 0 -- -- 45
2017-11-06 11:00:00 11.3 44 Norte 75 Noroeste 0 -- -- 49
2017-11-06 10:00:00 10.5 44 Norte 75 Noroeste 0 -- -- 54
2017-11-06 09:00:00 9.8 40 Norte 77 Noroeste 0 -- -- 56
2017-11-06 08:00:00 9.2 39 Norte 77 Norte 0 -- -- 55
2017-11-06 07:00:00 9.4 41 Norte 84 Norte 0 -- -- 51
2017-11-06 06:00:00 9.6 49 Norte 89 Norte 0 -- -- 50
2017-11-06 05:00:00 9.7 47 Norte 87 Norte 0 -- -- 54
2017-11-06 04:00:00 9.7 33 Norte 80 Noroeste 0 -- -- 54
2017-11-06 03:00:00 9.8 33 Noroeste 83 Norte 0 -- -- 55
2017-11-06 02:00:00 10 22 Norte 63 Norte 0 -- -- 56
2017-11-06 01:00:00 10 31 Norte 65 Norte 0 -- -- 58
2017-11-06 00:00:00 10.1 23 Norte 60 Norte 0 -- -- 56
2017-11-05 23:00:00 10.2 26 Norte 63 Noroeste 0 -- -- 54
2017-11-05 22:00:00 10.8 35 Norte 70 Norte 0 -- -- 51
2017-11-05 21:00:00 10.7 9 Sur 34 Noroeste 0 -- -- 54
2017-11-05 20:00:00 10.9 19 Norte 70 Nordeste 0 -- -- 59
2017-11-05 19:00:00 11.6 36 Norte 71 Norte 0 -- -- 56
2017-11-05 18:00:00 12.6 16 Norte 63 Norte 0 -- -- 56
2017-11-05 17:00:00 13.9 40 Norte 70 Nordeste 0 -- -- 51
2017-11-05 16:00:00 13.2 40 Norte 78 Norte 0 -- -- 56
2017-11-05 15:00:00 16 35 Norte 75 Norte 0 -- -- 43
2017-11-05 14:00:00 15.9 41 Norte 72 Norte 0 -- -- 43
2017-11-05 13:00:00 16.4 34 Norte 69 Norte 0 -- -- 43
2017-11-05 12:00:00 16.2 39 Norte 73 Norte 0 -- -- 41
2017-11-05 11:00:00 16.1 34 Norte 72 Norte 0 -- -- 38
2017-11-05 10:00:00 15.7 38 Norte 71 Norte 0 -- -- 33
2017-11-05 09:00:00 15 33 Norte 65 Norte 0 -- -- 53
2017-11-05 08:00:00 14.7 35 Norte 68 Norte 0 -- -- 53
2017-11-05 07:00:00 15.6 18 Noroeste 45 Noroeste 0 -- -- 64
2017-11-05 06:00:00 16.1 11 Norte 34 Nordeste 0 -- -- 64
2017-11-05 05:00:00 15.8 11 Noroeste 32 Noroeste 0 -- -- 68
2017-11-05 04:00:00 15.4 12 Norte 47 Norte 0 -- -- 72
2017-11-05 03:00:00 15.6 10 Norte 39 Norte 0 -- -- 73
2017-11-05 02:00:00 15.7 19 Norte 57 Norte 0 -- -- 74
2017-11-05 01:00:00 17.5 26 Norte 51 Norte 0.2 -- -- 64
2017-11-05 00:00:00 16.7 22 Norte 44 Norte 0 -- -- 68
2017-11-04 23:00:00 14.9 9 Nordeste 22 Nordeste 1.4 -- -- 86
2017-11-04 22:00:00 14.5 0 Calma 5 Oeste 0 -- -- 96
2017-11-04 21:00:00 14.7 4 Sudoeste 15 Nordeste 1 -- -- 95
2017-11-04 20:00:00 14.7 6 Nordeste 16 Nordeste 3.6 -- -- 95
2017-11-04 19:00:00 14.6 5 Nordeste 10 Norte 1.8 -- -- 92
2017-11-04 18:00:00 15.4 7 Norte 10 Norte 0 -- -- 84
2017-11-04 17:00:00 17.3 2 Oeste 10 Sudoeste 0 -- -- 78
2017-11-04 16:00:00 17.9 9 Sudoeste 18 Sur 0 -- -- 75
2017-11-04 15:00:00 18.8 6 Sur 21 Sudeste 0.2 -- -- 84
2017-11-04 14:00:00 17.6 14 Sur 26 Sur 0 -- -- 89
2017-11-04 13:00:00 18.1 16 Sur 28 Sudeste 0 -- -- 86
2017-11-04 12:00:00 18.2 14 Sur 25 Sur 0 -- -- 87
2017-11-04 11:00:00 17.6 9 Sur 16 Sudeste 0 -- -- 87
2017-11-04 10:00:00 16.7 5 Sudeste 8 Este 0 -- -- 87
2017-11-04 09:00:00 15.4 0 Calma 4 Sudoeste 0 -- -- 92
2017-11-04 08:00:00 14.7 0 Calma 5 Norte 0 -- -- 93
2017-11-04 07:00:00 14.7 3 Norte 5 Norte 0 -- -- 93
2017-11-04 06:00:00 14.4 0 Calma 8 Norte 0 -- -- 93
2017-11-04 05:00:00 14.7 0 Calma 6 Nordeste 0 -- -- 92
2017-11-04 04:00:00 15 4 Norte 7 Norte 0 -- -- 93
2017-11-04 03:00:00 14.7 4 Norte 6 Nordeste 0 -- -- 91
2017-11-04 02:00:00 15.1 7 Nordeste 12 Nordeste 0 -- -- 90
2017-11-04 01:00:00 15.5 6 Nordeste 10 Nordeste 0 -- -- 90
2017-11-04 00:00:00 14.7 2 Nordeste 8 Nordeste 0 -- -- 91
2017-11-03 23:00:00 16 3 Nordeste 5 Nordeste 0 -- -- 89
2017-11-03 22:00:00 16.5 0 Calma 13 Sur 0 -- -- 88
2017-11-03 21:00:00 16.5 6 Sudeste 12 Sudeste 0 -- -- 86
2017-11-03 20:00:00 16.9 0 Calma 8 Nordeste 0 -- -- 85
2017-11-03 19:00:00 16.6 5 Nordeste 13 Nordeste 0 -- -- 86
2017-11-03 18:00:00 17.3 10 Nordeste 22 Nordeste 0 -- -- 85
2017-11-03 17:00:00 19.8 8 Nordeste 15 Nordeste 0 -- -- 76
2017-11-03 16:00:00 19.8 5 Este 20 Sudeste 0 -- -- 77
2017-11-03 15:00:00 19.3 13 Sur 22 Sudeste 0 -- -- 78
2017-11-03 14:00:00 19.8 13 Sudeste 22 Sur 0 -- -- 72
2017-11-03 13:00:00 18.6 8 Sur 17 Sudoeste 0 -- -- 72
2017-11-03 12:00:00 18.2 8 Sur 18 Sudoeste 0 -- -- 72
2017-11-03 11:00:00 17.7 5 Sudoeste 12 Sur 0 -- -- 75
2017-11-03 10:00:00 16.7 5 Sudoeste 9 Sudoeste 0 -- -- 81
2017-11-03 09:00:00 15.5 0 Calma 3 Sur 0 -- -- 87
2017-11-03 08:00:00 14.8 0 Calma 3 Sudoeste 0 -- -- 89
2017-11-03 07:00:00 14.7 0 Calma 4 Norte 0 -- -- 89
2017-11-03 06:00:00 14.6 0 Calma 5 Sur 0 -- -- 89
2017-11-03 05:00:00 14.5 0 Calma 4 Sudoeste 0 -- -- 88
2017-11-03 04:00:00 14.8 0 Calma 8 Nordeste 0 -- -- 87
2017-11-03 03:00:00 15.4 7 Nordeste 10 Nordeste 0 -- -- 84
2017-11-03 02:00:00 15.1 7 Nordeste 12 Nordeste 0 -- -- 85
2017-11-03 01:00:00 14.4 4 Nordeste 7 Nordeste 0 -- -- 87
2017-11-03 00:00:00 14.3 0 Calma 8 Nordeste 0 -- -- 86
2017-11-02 23:00:00 14.6 7 Nordeste 16 Nordeste 0 -- -- 84
2017-11-02 22:00:00 14.2 11 Nordeste 19 Nordeste 0 -- -- 85
2017-11-02 21:00:00 14 10 Nordeste 14 Nordeste 0 -- -- 86
2017-11-02 20:00:00 14.6 11 Nordeste 17 Nordeste 0 -- -- 84
2017-11-02 19:00:00 15.6 13 Nordeste 20 Nordeste 0 -- -- 82
2017-11-02 18:00:00 16 13 Nordeste 19 Nordeste 0 -- -- 81
2017-11-02 17:00:00 17.3 9 Nordeste 19 Nordeste 0 -- -- 76
2017-11-02 16:00:00 20 8 Nordeste 16 Nordeste 0 -- -- 67
2017-11-02 15:00:00 21 7 Nordeste 14 Nordeste 0 -- -- 61
2017-11-02 14:00:00 21.2 5 Noroeste 13 Sudoeste 0 -- -- 57
2017-11-02 13:00:00 20.6 4 Sudoeste 13 Sudoeste 0 -- -- 57
2017-11-02 12:00:00 20 6 Sur 14 Sudoeste 0 -- -- 63
2017-11-02 11:00:00 18.5 5 Sudoeste 9 Sur 0 -- -- 69
2017-11-02 10:00:00 16 0 Calma 7 Nordeste 0 -- -- 82
2017-11-02 09:00:00 14.2 5 Nordeste 9 Nordeste 0 -- -- 87
2017-11-02 08:00:00 11 3 Nordeste 14 Nordeste 0 -- -- 95
2017-11-02 07:00:00 10 6 Nordeste 13 Nordeste 0 -- -- 95
2017-11-02 06:00:00 10.1 4 Nordeste 10 Nordeste 0 -- -- 95
2017-11-02 05:00:00 10.4 6 Nordeste 11 Nordeste 0 -- -- 94
2017-11-02 04:00:00 11.1 9 Nordeste 13 Nordeste 0 -- -- 94
2017-11-02 03:00:00 11.6 11 Nordeste 14 Nordeste 0 -- -- 93
2017-11-02 02:00:00 11.8 11 Nordeste 13 Nordeste 0 -- -- 94
2017-11-02 01:00:00 11.8 7 Nordeste 11 Nordeste 0 -- -- 93
2017-11-02 00:00:00 12.3 4 Nordeste 11 Nordeste 0 -- -- 92
2017-11-01 23:00:00 12.7 7 Nordeste 9 Nordeste 0 -- -- 90
2017-11-01 22:00:00 14 2 Nordeste 4 Norte 0 -- -- 87
2017-11-01 21:00:00 15.1 3 Este 4 Este 0 -- -- 82
2017-11-01 20:00:00 15.9 2 Nordeste 8 Sudeste 0 -- -- 81
2017-11-01 19:00:00 16.4 4 Sudeste 11 Sur 0 -- -- 82
2017-11-01 18:00:00 16.6 9 Sur 19 Sur 0 -- -- 78
2017-11-01 17:00:00 17 12 Sudeste 27 Sur 0 -- -- 73
2017-11-01 16:00:00 18.1 13 Sur 28 Sur 0 -- -- 69
2017-11-01 15:00:00 18.9 18 Sur 28 Sur 0 -- -- 67
2017-11-01 14:00:00 19.9 12 Sur 23 Sudeste 0 -- -- 58
2017-11-01 13:00:00 19.5 12 Sur 23 Sudeste 0 -- -- 58
2017-11-01 12:00:00 19 9 Sur 16 Sudoeste 0 -- -- 57
2017-11-01 11:00:00 17.6 5 Sur 10 Sudeste 0 -- -- 63
2017-11-01 10:00:00 16.5 2 Sur 9 Sur 0 -- -- 66
2017-11-01 09:00:00 13.4 0 Calma 10 Nordeste 0 -- -- 76
2017-11-01 08:00:00 8.5 6 Nordeste 13 Nordeste 0 -- -- 88
2017-11-01 07:00:00 7.3 5 Nordeste 9 Nordeste 0 -- -- 88
2017-11-01 06:00:00 7.1 3 Nordeste 13 Nordeste 0 -- -- 86
2017-11-01 05:00:00 7.5 5 Nordeste 11 Este 0 -- -- 87
2017-11-01 04:00:00 7.5 2 Nordeste 10 Nordeste 0 -- -- 87
2017-11-01 03:00:00 7.8 3 Norte 9 Nordeste 0 -- -- 87
2017-11-01 02:00:00 8 2 Nordeste 6 Nordeste 0 -- -- 90
2017-11-01 01:00:00 8.9 2 Nordeste 12 Nordeste 0 -- -- 88
2017-11-01 00:00:00 8.9 3 Nordeste 9 Este 0 -- -- 87
2017-10-31 23:00:00 8.8 4 Nordeste 8 Nordeste 0 -- -- 81
2017-10-31 22:00:00 9.1 4 Norte 8 Nordeste 0 -- -- 78
2017-10-31 21:00:00 9.6 4 Nordeste 7 Nordeste 0 -- -- 72
2017-10-31 20:00:00 10.9 2 Nordeste 11 Nordeste 0 -- -- 65
2017-10-31 19:00:00 11.7 6 Norte 16 Nordeste 0 -- -- 62
2017-10-31 18:00:00 13.3 12 Nordeste 17 Nordeste 0 -- -- 56
2017-10-31 17:00:00 16.2 8 Nordeste 15 Nordeste 0 -- -- 47
2017-10-31 16:00:00 18.6 8 Sudeste 15 Sudeste 0 -- -- 41
2017-10-31 15:00:00 19.2 12 Sur 17 Sudeste 0 -- -- 39
2017-10-31 14:00:00 19.3 8 Nordeste 18 Nordeste 0 -- -- 37
2017-10-31 13:00:00 18.7 9 Nordeste 18 Norte 0 -- -- 37
2017-10-31 12:00:00 18.1 8 Nordeste 24 Este 0 -- -- 37
2017-10-31 11:00:00 17.1 14 Este 24 Este 0 -- -- 39
2017-10-31 10:00:00 16.2 6 Oeste 11 Noroeste 0 -- -- 44
2017-10-31 09:00:00 12.4 2 Noroeste 6 Noroeste 0 -- -- 62
2017-10-31 08:00:00 7.4 5 Nordeste 9 Nordeste 0 -- -- 82
2017-10-31 07:00:00 7.8 5 Norte 13 Norte 0 -- -- 79
2017-10-31 06:00:00 7.4 3 Nordeste 13 Nordeste 0 -- -- 82
2017-10-31 05:00:00 7.3 4 Norte 11 Norte 0 -- -- 81
2017-10-31 04:00:00 8.5 4 Norte 11 Nordeste 0 -- -- 75
2017-10-31 03:00:00 11.4 4 Norte 18 Norte 0 -- -- 65
2017-10-31 02:00:00 11.6 6 Norte 18 Norte 0 -- -- 65
2017-10-31 01:00:00 9.1 3 Noroeste 9 Nordeste 0 -- -- 75
2017-10-31 00:00:00 11.1 4 Nordeste 9 Sur 0 -- -- 68
2017-10-30 23:00:00 13.1 6 Sudoeste 21 Sudeste 0 -- -- 61
2017-10-30 22:00:00 13.7 10 Nordeste 33 Este 0 -- -- 60
2017-10-30 21:00:00 14.1 9 Sudeste 36 Norte 0 -- -- 61
2017-10-30 20:00:00 14.9 28 Norte 54 Norte 0 -- -- 61
2017-10-30 19:00:00 14.8 25 Norte 61 Nordeste 0 -- -- 64
2017-10-30 18:00:00 15.3 26 Norte 56 Norte 0 -- -- 62
2017-10-30 17:00:00 16.6 28 Norte 58 Norte 0 -- -- 57
2017-10-30 16:00:00 18.5 24 Norte 47 Norte 0 -- -- 53
2017-10-30 15:00:00 20 27 Norte 49 Nordeste 0 -- -- 48
2017-10-30 14:00:00 20 26 Norte 54 Norte 0 -- -- 47
2017-10-30 13:00:00 19.8 22 Norte 50 Noroeste 0 -- -- 49
2017-10-30 12:00:00 19.5 18 Norte 42 Norte 0 -- -- 51
2017-10-30 11:00:00 19.2 23 Noroeste 48 Noroeste 0 -- -- 51
2017-10-30 10:00:00 18.8 19 Norte 56 Norte 0 -- -- 51
2017-10-30 09:00:00 17.2 17 Norte 42 Noroeste 0 -- -- 57
2017-10-30 08:00:00 16.2 17 Norte 40 Norte 0 -- -- 60
2017-10-30 07:00:00 15.4 9 Noroeste 36 Noroeste 0 -- -- 62
2017-10-30 06:00:00 15.1 13 Norte 37 Norte 0 -- -- 63
2017-10-30 05:00:00 15.3 17 Norte 33 Noroeste 0 -- -- 61
2017-10-30 04:00:00 15.1 6 Norte 50 Noroeste 0 -- -- 63
2017-10-30 03:00:00 15.5 19 Norte 47 Norte 0 -- -- 61
2017-10-30 02:00:00 16.1 14 Noroeste 53 Norte 0 -- -- 58
2017-10-30 01:00:00 16.9 20 Noroeste 50 Norte 0 -- -- 54
2017-10-30 00:00:00 17.3 24 Norte 61 Noroeste 0 -- -- 51
2017-10-29 23:00:00 17.7 16 Noroeste 51 Norte 0 -- -- 50
2017-10-29 22:00:00 18 15 Sur 54 Sudoeste 0 -- -- 49
2017-10-29 21:00:00 16.9 14 Sudoeste 43 Oeste 0 -- -- 48
2017-10-29 20:00:00 16.5 15 Noroeste 40 Noroeste 0 -- -- 47
2017-10-29 19:00:00 16.5 22 Noroeste 50 Noroeste 0 -- -- 48
2017-10-29 18:00:00 17.3 12 Nordeste 37 Nordeste 0 -- -- 44
2017-10-29 17:00:00 19.9 24 Nordeste 38 Norte 0 -- -- 36
2017-10-29 16:00:00 23.4 18 Norte 36 Norte 0 -- -- 30
2017-10-29 15:00:00 23.7 17 Norte 34 Noroeste 0 -- -- 28
2017-10-29 14:00:00 23.5 22 Norte 37 Norte 0 -- -- 27
2017-10-29 13:00:00 23.1 20 Noroeste 36 Norte 0 -- -- 28
2017-10-29 12:00:00 24 15 Noroeste 28 Oeste 0 -- -- 25
2017-10-29 11:00:00 23.3 13 Oeste 22 Oeste 0 -- -- 23
2017-10-29 10:00:00 20.7 14 Oeste 26 Oeste 0 -- -- 27
2017-10-29 09:00:00 18 6 Oeste 19 Oeste 0 -- -- 31
2017-10-29 08:00:00 12.2 6 Sudeste 13 Sudeste 0 -- -- 46
2017-10-29 07:00:00 11.7 4 Sudeste 31 Noroeste 0 -- -- 53
2017-10-29 06:00:00 11.8 7 Sur 29 Noroeste 0 -- -- 46
2017-10-29 05:00:00 11.6 4 Este 34 Noroeste 0 -- -- 48
2017-10-29 04:00:00 17.8 13 Noroeste 39 Norte 0 -- -- 18
2017-10-29 03:00:00 19.1 23 Noroeste 37 Noroeste 0 -- -- 14
2017-10-29 02:00:00 17.9 14 Norte 38 Noroeste 0 -- -- 19
2017-10-29 01:00:00 16.5 27 Noroeste 62 Noroeste 0 -- -- 39
2017-10-29 00:00:00 16.5 30 Norte 55 Nordeste 0 -- -- 47
2017-10-28 23:00:00 16.3 21 Noroeste 41 Noroeste 0 -- -- 52
2017-10-28 22:00:00 16.2 15 Noroeste 41 Noroeste 0 -- -- 54
2017-10-28 21:00:00 16.2 16 Norte 49 Noroeste 0 -- -- 57
2017-10-28 20:00:00 16.8 23 Norte 47 Noroeste 0 -- -- 53
2017-10-28 19:00:00 18.5 22 Norte 42 Noroeste 0 -- -- 46
2017-10-28 18:00:00 21.2 25 Noroeste 41 Noroeste 0 -- -- 38
2017-10-28 17:00:00 23 21 Norte 36 Noroeste 0 -- -- 32
2017-10-28 16:00:00 23 19 Noroeste 42 Noroeste 0 -- -- 36
2017-10-28 15:00:00 22.4 25 Noroeste 46 Noroeste 0 -- -- 39
2017-10-28 14:00:00 22.6 13 Norte 40 Noroeste 0 -- -- 39
2017-10-28 13:00:00 22.5 21 Noroeste 54 Noroeste 0 -- -- 38
2017-10-28 12:00:00 21.2 32 Noroeste 50 Noroeste 0 -- -- 45
2017-10-28 11:00:00 21.1 14 Noroeste 42 Norte 0 -- -- 45
2017-10-28 10:00:00 20 12 Norte 51 Norte 0 -- -- 47
2017-10-28 09:00:00 19 9 Nordeste 41 Oeste 0 -- -- 50
2017-10-28 08:00:00 18.6 15 Oeste 40 Nordeste 0 -- -- 51
2017-10-28 07:00:00 18.8 14 Nordeste 41 Este 0 -- -- 50
2017-10-28 06:00:00 18.4 18 Oeste 49 Oeste 0 -- -- 53
2017-10-28 05:00:00 18.1 29 Oeste 68 Noroeste 0 -- -- 56
2017-10-28 04:00:00 18.2 32 Norte 72 Noroeste 0 -- -- 58
2017-10-28 03:00:00 18.3 27 Sur 90 Oeste 0 -- -- 57
2017-10-28 02:00:00 19.5 33 Sur 85 Oeste 0 -- -- 53
2017-10-28 01:00:00 18.8 26 Norte 66 Norte 0 -- -- 58
2017-10-28 00:00:00 19.2 36 Norte 68 Norte 0 -- -- 57
2017-10-27 23:00:00 19.2 31 Norte 58 Norte 0 -- -- 56
2017-10-27 22:00:00 19.3 34 Norte 63 Noroeste 0 -- -- 57
2017-10-27 21:00:00 19.3 23 Norte 58 Noroeste 0 -- -- 58
2017-10-27 20:00:00 19.2 22 Norte 45 Norte 0 -- -- 57
2017-10-27 19:00:00 20.1 8 Norte 29 Este 0 -- -- 53
2017-10-27 18:00:00 21.7 8 Nordeste 61 Norte 0 -- -- 51
2017-10-27 17:00:00 22.4 25 Norte 62 Norte 0 -- -- 50
2017-10-27 16:00:00 22.2 41 Norte 74 Norte 0 -- -- 51
2017-10-27 15:00:00 22.7 37 Norte 67 Norte 0 -- -- 50
2017-10-27 14:00:00 23.5 25 Norte 47 Norte 0 -- -- 48
2017-10-27 13:00:00 24.4 11 Nordeste 27 Nordeste 0 -- -- 44
2017-10-27 12:00:00 23.4 11 Sur 22 Sur 0 -- -- 52
2017-10-27 11:00:00 20.8 12 Sur 21 Sur 0 -- -- 62
2017-10-27 10:00:00 17.9 4 Sur 13 Nordeste 0 -- -- 80
2017-10-27 09:00:00 12.8 0 Calma 13 Norte 0.2 -- -- 96
2017-10-27 08:00:00 11.4 4 Nordeste 8 Norte 0 -- -- 96
2017-10-27 07:00:00 11.7 4 Nordeste 8 Norte 0 -- -- 96
2017-10-27 06:00:00 12.3 3 Nordeste 9 Norte 0 -- -- 95
2017-10-27 05:00:00 11.8 4 Norte 14 Nordeste 0 -- -- 96
2017-10-27 04:00:00 12.3 6 Nordeste 10 Nordeste 0 -- -- 96
2017-10-27 03:00:00 13 5 Nordeste 9 Norte 0 -- -- 97
2017-10-27 02:00:00 12.3 3 Norte 8 Nordeste 0 -- -- 96
2017-10-27 01:00:00 12.5 3 Nordeste 9 Nordeste 0 -- -- 95
2017-10-27 00:00:00 12.5 5 Nordeste 9 Nordeste 0 -- -- 96
2017-10-26 23:00:00 12.5 4 Norte 8 Nordeste 0 -- -- 94
2017-10-26 22:00:00 13.6 5 Norte 12 Norte 0 -- -- 93
2017-10-26 21:00:00 13.6 4 Norte 6 Norte 0 -- -- 92
2017-10-26 20:00:00 15.1 0 Calma 4 Norte 0 -- -- 86
2017-10-26 19:00:00 17.3 2 Sudoeste 10 Sur 0 -- -- 84
2017-10-26 18:00:00 20.2 8 Sudoeste 13 Sur 0 -- -- 74
2017-10-26 17:00:00 22.1 6 Sur 15 Sudoeste 0 -- -- 65
2017-10-26 16:00:00 21.8 6 Sur 12 Sur 0 -- -- 66
2017-10-26 15:00:00 21.2 6 Sur 11 Sur 0 -- -- 68
2017-10-26 14:00:00 19.1 5 Sudoeste 9 Sur 0 -- -- 75
2017-10-26 13:00:00 18.4 3 Sudoeste 7 Sudoeste 0 -- -- 78
2017-10-26 12:00:00 17.4 0 Calma 5 Norte 0 -- -- 83
2017-10-26 11:00:00 16.3 4 Norte 7 Nordeste 0 -- -- 87
2017-10-26 10:00:00 15.6 6 Nordeste 10 Norte 0 -- -- 85
2017-10-26 09:00:00 12.1 6 Nordeste 10 Nordeste 0 -- -- 96
2017-10-26 08:00:00 10.6 2 Nordeste 6 Nordeste 0 -- -- 94
2017-10-26 07:00:00 11.6 0 Calma 10 Nordeste 0 -- -- 92
2017-10-26 06:00:00 11.9 6 Nordeste 12 Nordeste 0 -- -- 93
2017-10-26 05:00:00 11.9 4 Nordeste 6 Nordeste 0 -- -- 92
2017-10-26 04:00:00 11.9 0 Calma 9 Nordeste 0 -- -- 92
2017-10-26 03:00:00 11.7 4 Nordeste 8 Norte 0 -- -- 92
2017-10-26 02:00:00 11.7 3 Norte 8 Nordeste 0 -- -- 92
2017-10-26 01:00:00 12.6 2 Nordeste 13 Nordeste 0 -- -- 88
2017-10-26 00:00:00 12.3 4 Nordeste 8 Norte 0 -- -- 90
2017-10-25 23:00:00 12.4 3 Nordeste 8 Nordeste 0 -- -- 90
2017-10-25 22:00:00 12.7 2 Nordeste 8 Nordeste 0 -- -- 88
2017-10-25 21:00:00 13.7 5 Nordeste 8 Nordeste 0 -- -- 87
2017-10-25 20:00:00 15.6 0 Calma 4 Sudoeste 0 -- -- 80
2017-10-25 19:00:00 18.2 0 Calma 11 Sur 0 -- -- 72
2017-10-25 18:00:00 20.6 9 Sur 15 Sudoeste 0 -- -- 63
2017-10-25 17:00:00 23.5 10 Sur 18 Sur 0 -- -- 54
2017-10-25 16:00:00 24.4 10 Sudoeste 18 Sur 0 -- -- 51
2017-10-25 15:00:00 24.7 7 Sur 17 Sur 0 -- -- 47
2017-10-25 14:00:00 23.8 7 Sur 15 Oeste 0 -- -- 49
2017-10-25 13:00:00 22.7 9 Sur 18 Sur 0 -- -- 52
2017-10-25 12:00:00 22 5 Sudoeste 11 Sudoeste 0 -- -- 54
2017-10-25 11:00:00 20.5 4 Sur 10 Este 0 -- -- 60
2017-10-25 10:00:00 17.9 7 Este 11 Nordeste 0 -- -- 67
2017-10-25 09:00:00 13.6 5 Nordeste 10 Nordeste 0 -- -- 82
2017-10-25 08:00:00 13.1 6 Nordeste 13 Nordeste 0 -- -- 85
2017-10-25 07:00:00 11.8 0 Calma 8 Nordeste 0 -- -- 87
2017-10-25 06:00:00 15.5 5 Nordeste 18 Nordeste 0 -- -- 76
2017-10-25 05:00:00 16.6 12 Nordeste 19 Nordeste 0 -- -- 73
2017-10-25 04:00:00 15.8 15 Nordeste 21 Nordeste 0 -- -- 72
2017-10-25 03:00:00 14.7 4 Sudoeste 21 Nordeste 0 -- -- 74
2017-10-25 02:00:00 14.7 9 Nordeste 14 Este 0 -- -- 74
2017-10-25 01:00:00 14.4 6 Nordeste 15 Nordeste 0 -- -- 75
2017-10-25 00:00:00 14.9 4 Nordeste 17 Nordeste 0 -- -- 74